Time;durP1;ratioP1;P1;durP2;ratioP2;P2;SDS_P1;SDS_P2;PMS_P1;PMS_P2;Temp;Humidity;BMP_temperature;BMP_pressure;BME280_temperature;BME280_humidity;BME280_pressure;Samples;Min_cycle;Max_cycle;Signal;HPM_P1;HPM_P2
2021/01/29 00:01:14;;;;;;;0.90;0.53;;;13.90;93.10;;;;;;5051820;28;20683;-54
2021/01/29 00:03:40;;;;;;;1.70;0.97;;;14.30;92.30;;;;;;5053345;28;20645;-53
2021/01/29 00:06:07;;;;;;;1.70;1.23;;;14.60;91.40;;;;;;5053742;28;20622;-54
2021/01/29 00:08:34;;;;;;;1.80;0.87;;;14.80;90.30;;;;;;5053890;28;21169;-56
2021/01/29 00:11:01;;;;;;;2.47;0.83;;;14.60;88.30;;;;;;5051628;28;20635;-56
2021/01/29 00:13:28;;;;;;;1.90;0.73;;;14.20;89.30;;;;;;5048084;28;20716;-56
2021/01/29 00:15:55;;;;;;;1.93;0.80;;;13.70;90.40;;;;;;5051858;28;20676;-56
2021/01/29 00:18:22;;;;;;;1.57;0.80;;;13.40;91.50;;;;;;5051997;28;20661;-55
2021/01/29 00:20:49;;;;;;;2.13;0.93;;;13.10;92.20;;;;;;5051772;28;20651;-56
2021/01/29 00:23:16;;;;;;;2.00;1.43;;;12.90;92.70;;;;;;5052836;28;20654;-55
2021/01/29 00:25:45;;;;;;;1.03;0.93;;;12.70;93.20;;;;;;5035329;28;20621;-55
2021/01/29 00:28:11;;;;;;;2.27;1.03;;;12.60;93.60;;;;;;5053631;28;20696;-55
2021/01/29 00:30:39;;;;;;;2.03;0.80;;;12.50;93.90;;;;;;5053494;28;20684;-54
2021/01/29 00:33:07;;;;;;;1.80;1.10;;;12.50;94.20;;;;;;5053703;28;21013;-56
2021/01/29 00:35:34;;;;;;;1.33;0.77;;;12.50;94.50;;;;;;5053421;28;20629;-56
2021/01/29 00:38:01;;;;;;;1.23;0.90;;;12.40;94.60;;;;;;5053281;28;20622;-55
2021/01/29 00:40:28;;;;;;;2.83;0.90;;;12.50;94.90;;;;;;5053628;28;20660;-55
2021/01/29 00:42:55;;;;;;;2.23;1.23;;;12.50;94.60;;;;;;5052688;28;20669;-54
2021/01/29 00:45:24;;;;;;;2.20;1.33;;;12.50;94.70;;;;;;5053425;28;20642;-56
2021/01/29 00:47:51;;;;;;;2.00;1.13;;;12.50;94.80;;;;;;5053015;28;20649;-54
2021/01/29 00:50:18;;;;;;;8.10;2.40;;;12.50;95.00;;;;;;5053200;28;20622;-55
2021/01/29 00:52:45;;;;;;;1.60;1.10;;;12.50;95.20;;;;;;5052222;28;20658;-55
2021/01/29 00:55:12;;;;;;;1.43;1.03;;;12.50;95.40;;;;;;5053431;28;21281;-54
2021/01/29 00:57:39;;;;;;;1.57;1.20;;;12.50;95.50;;;;;;5053701;28;20984;-55
2021/01/29 01:00:08;;;;;;;1.37;1.13;;;12.50;95.70;;;;;;5035168;28;20658;-54
2021/01/29 01:02:35;;;;;;;1.67;1.00;;;12.50;95.90;;;;;;5052717;28;20703;-55
2021/01/29 01:05:03;;;;;;;2.03;1.80;;;12.50;96.10;;;;;;5052463;28;21232;-54
2021/01/29 01:07:30;;;;;;;1.37;0.90;;;12.50;96.30;;;;;;5053175;28;20691;-54
2021/01/29 01:09:56;;;;;;;1.80;1.40;;;12.50;96.40;;;;;;5053155;28;20683;-54
2021/01/29 01:12:23;;;;;;;1.30;1.10;;;12.40;96.50;;;;;;5052131;28;20693;-54
2021/01/29 01:14:50;;;;;;;1.53;1.37;;;12.40;96.60;;;;;;5053874;28;20632;-54
2021/01/29 01:17:17;;;;;;;2.00;1.10;;;12.50;96.80;;;;;;5030395;28;20635;-54
2021/01/29 01:19:44;;;;;;;2.10;1.27;;;12.50;96.90;;;;;;5033628;28;21267;-55
2021/01/29 01:22:11;;;;;;;0.83;0.83;;;12.50;96.90;;;;;;5015793;28;21320;-54
2021/01/29 01:24:39;;;;;;;1.60;0.90;;;12.50;97.00;;;;;;5033780;28;20631;-55
2021/01/29 01:27:07;;;;;;;2.20;1.27;;;12.50;97.00;;;;;;5033779;28;20642;-54
2021/01/29 01:29:34;;;;;;;1.03;0.77;;;12.50;97.20;;;;;;5033282;28;21285;-54
2021/01/29 01:32:01;;;;;;;1.60;1.10;;;12.40;97.20;;;;;;5032622;28;20651;-54
2021/01/29 01:34:28;;;;;;;1.27;1.17;;;12.40;97.40;;;;;;5033470;28;20634;-55
2021/01/29 01:36:54;;;;;;;1.47;1.10;;;12.40;97.50;;;;;;5033683;28;20634;-54
2021/01/29 01:39:22;;;;;;;2.63;1.30;;;12.40;97.60;;;;;;5033295;28;20658;-56
2021/01/29 01:41:50;;;;;;;2.80;1.70;;;12.40;97.70;;;;;;5033100;28;20651;-54
2021/01/29 01:44:23;;;;;;;2.30;1.40;;;12.40;97.70;;;;;;5033014;28;20627;-54
2021/01/29 01:46:50;;;;;;;1.33;1.03;;;12.40;97.70;;;;;;5032187;28;20635;-54
2021/01/29 01:49:16;;;;;;;1.60;1.50;;;12.40;97.80;;;;;;5033481;28;21201;-55
2021/01/29 01:51:45;;;;;;;3.00;1.40;;;12.40;98.00;;;;;;5033273;28;20724;-56
2021/01/29 01:54:18;;;;;;;1.77;1.67;;;12.40;98.00;;;;;;5039815;28;20664;-54
2021/01/29 01:56:47;;;;;;;2.93;1.60;;;12.30;98.00;;;;;;5051877;28;20626;-54
2021/01/29 01:59:15;;;;;;;1.10;1.00;;;12.30;98.10;;;;;;5051754;28;20658;-55
2021/01/29 02:01:42;;;;;;;1.30;1.20;;;12.40;98.20;;;;;;5052027;28;20630;-54
2021/01/29 02:04:09;;;;;;;2.10;1.90;;;12.40;98.30;;;;;;5051793;28;20622;-54
2021/01/29 02:06:40;;;;;;;3.07;1.80;;;12.30;98.40;;;;;;5051669;28;20676;-55
2021/01/29 02:09:07;;;;;;;4.80;2.23;;;12.30;98.60;;;;;;5051320;28;20634;-54
2021/01/29 02:11:33;;;;;;;2.67;1.43;;;12.30;98.90;;;;;;5051280;28;20699;-56
2021/01/29 02:14:01;;;;;;;2.40;1.70;;;12.20;99.20;;;;;;5051269;28;20992;-56
2021/01/29 02:16:32;;;;;;;4.33;2.10;;;12.20;99.40;;;;;;5051279;28;20688;-55
2021/01/29 02:19:23;;;;;;;2.47;1.90;;;12.20;99.60;;;;;;5051003;28;20709;-55
2021/01/29 02:22:07;;;;;;;3.17;2.27;;;12.10;99.70;;;;;;5020712;28;20723;-55
2021/01/29 02:24:50;;;;;;;2.93;2.40;;;12.10;99.80;;;;;;5051635;28;20638;-54
2021/01/29 02:27:32;;;;;;;2.10;1.90;;;12.20;99.90;;;;;;5051201;28;20652;-55
2021/01/29 02:30:24;;;;;;;5.17;1.97;;;12.10;99.90;;;;;;5051378;28;20659;-55
2021/01/29 02:33:22;;;;;;;4.10;2.33;;;12.20;99.90;;;;;;5051212;28;21234;-55
2021/01/29 02:36:38;;;;;;;3.00;2.20;;;12.20;99.90;;;;;;5051233;28;20634;-54
2021/01/29 02:39:36;;;;;;;6.50;2.43;;;12.10;99.90;;;;;;5050953;28;21054;-55
2021/01/29 02:42:08;;;;;;;3.23;2.23;;;12.10;99.90;;;;;;5050990;28;20727;-54
2021/01/29 02:44:40;;;;;;;3.00;2.37;;;12.10;99.90;;;;;;5050995;28;20633;-54
2021/01/29 02:47:08;;;;;;;2.40;2.03;;;12.10;99.90;;;;;;5050437;28;20994;-55
2021/01/29 02:49:40;;;;;;;3.27;2.27;;;12.10;99.90;;;;;;5050960;28;21194;-54
2021/01/29 02:52:12;;;;;;;5.47;2.37;;;12.10;99.90;;;;;;5051304;28;20696;-55
2021/01/29 02:54:42;;;;;;;2.70;2.17;;;12.10;99.90;;;;;;5050736;28;21228;-55
2021/01/29 02:57:12;;;;;;;3.70;2.47;;;12.10;99.90;;;;;;5050653;28;20618;-55
2021/01/29 02:59:41;;;;;;;6.20;2.37;;;12.00;99.90;;;;;;5050845;28;20654;-56
2021/01/29 03:02:10;;;;;;;4.90;2.30;;;12.00;99.90;;;;;;5051033;28;20711;-54
2021/01/29 03:04:43;;;;;;;4.87;2.40;;;11.90;99.90;;;;;;5051677;28;20626;-55
2021/01/29 03:07:12;;;;;;;3.43;2.87;;;11.90;99.90;;;;;;5051612;28;20629;-56
2021/01/29 03:09:43;;;;;;;4.77;3.00;;;11.90;99.90;;;;;;5050927;28;20630;-55
2021/01/29 03:12:12;;;;;;;6.30;3.27;;;12.00;99.90;;;;;;5051304;28;21162;-55
2021/01/29 03:14:40;;;;;;;5.90;3.70;;;11.90;99.90;;;;;;5050987;28;20618;-54
2021/01/29 03:17:10;;;;;;;9.40;4.17;;;11.90;99.90;;;;;;5051017;28;20645;-55
2021/01/29 03:19:40;;;;;;;5.60;3.00;;;11.90;99.90;;;;;;5049840;28;20654;-56
2021/01/29 03:22:09;;;;;;;4.13;2.63;;;11.80;99.90;;;;;;5049520;28;20662;-56
2021/01/29 03:24:36;;;;;;;3.23;2.30;;;11.80;99.90;;;;;;5050565;28;21259;-55
2021/01/29 03:27:08;;;;;;;2.83;2.10;;;11.80;99.90;;;;;;5050382;28;20619;-55
2021/01/29 03:29:39;;;;;;;2.40;1.83;;;11.70;99.90;;;;;;5050833;28;20626;-56
2021/01/29 03:32:06;;;;;;;2.03;1.83;;;11.70;99.90;;;;;;5050739;28;20719;-55
2021/01/29 03:34:35;;;;;;;1.47;1.23;;;11.70;99.90;;;;;;5051468;28;20622;-56
2021/01/29 03:37:05;;;;;;;4.03;2.30;;;11.70;99.90;;;;;;5033095;28;20638;-56
2021/01/29 03:39:34;;;;;;;2.50;1.90;;;11.70;99.90;;;;;;5050034;28;20720;-55
2021/01/29 03:42:05;;;;;;;1.90;1.43;;;11.70;99.90;;;;;;5049934;28;21056;-54
2021/01/29 03:44:41;;;;;;;4.23;2.50;;;11.70;99.90;;;;;;5050018;28;20683;-56
2021/01/29 03:47:09;;;;;;;2.97;2.73;;;11.70;99.90;;;;;;5032486;28;20621;-56
2021/01/29 03:49:40;;;;;;;2.07;1.87;;;11.70;99.90;;;;;;5050404;28;20643;-55
2021/01/29 03:52:10;;;;;;;3.93;3.23;;;11.60;99.90;;;;;;5050259;28;21048;-55
2021/01/29 03:54:43;;;;;;;2.90;2.67;;;11.60;99.90;;;;;;5048372;28;20630;-54
2021/01/29 03:57:20;;;;;;;2.63;2.43;;;11.60;99.90;;;;;;5030076;28;21249;-54
2021/01/29 03:59:53;;;;;;;2.97;2.77;;;11.60;99.90;;;;;;5030312;28;20782;-55
2021/01/29 04:02:22;;;;;;;3.10;2.87;;;11.60;99.90;;;;;;5030389;28;20655;-56
2021/01/29 04:04:53;;;;;;;4.27;3.10;;;11.60;99.90;;;;;;5030542;28;20623;-55
2021/01/29 04:07:22;;;;;;;4.07;3.67;;;11.60;99.90;;;;;;5030408;28;21049;-55
2021/01/29 04:09:52;;;;;;;4.57;4.27;;;11.60;99.90;;;;;;5030175;28;20692;-56
2021/01/29 04:12:23;;;;;;;4.43;4.13;;;11.60;99.90;;;;;;5030607;28;21281;-56
2021/01/29 04:14:52;;;;;;;6.03;5.53;;;11.60;99.90;;;;;;5029771;28;21010;-54
2021/01/29 04:17:22;;;;;;;6.53;6.03;;;11.60;99.90;;;;;;5035458;28;20995;-56
2021/01/29 04:19:50;;;;;;;4.77;4.30;;;11.60;99.90;;;;;;5050214;28;20658;-55
2021/01/29 04:22:18;;;;;;;13.10;6.37;;;11.60;99.90;;;;;;5049934;28;20734;-55
2021/01/29 04:24:48;;;;;;;5.53;5.13;;;11.60;99.90;;;;;;5049546;28;21256;-55
2021/01/29 04:27:16;;;;;;;5.37;4.87;;;11.60;99.90;;;;;;5049682;28;20629;-54
2021/01/29 04:29:46;;;;;;;5.20;4.80;;;11.60;99.90;;;;;;5050035;28;21185;-56
2021/01/29 04:32:14;;;;;;;5.87;5.37;;;11.60;99.90;;;;;;5049901;28;20726;-55
2021/01/29 04:34:42;;;;;;;6.83;6.23;;;11.60;99.90;;;;;;5049973;28;20637;-55
2021/01/29 04:37:11;;;;;;;5.73;5.30;;;11.70;99.90;;;;;;5049570;28;21358;-55
2021/01/29 04:39:39;;;;;;;4.77;4.10;;;11.70;99.90;;;;;;5049231;28;20822;-56
2021/01/29 04:42:09;;;;;;;6.40;5.80;;;11.70;99.90;;;;;;5065434;22;20666;-66
2021/01/29 04:44:58;;;;;;;6.77;6.17;;;11.70;99.90;;;;;;5092950;28;20729;-67
2021/01/29 04:47:27;;;;;;;4.77;4.37;;;11.70;99.90;;;;;;5102483;28;20640;-67
2021/01/29 04:50:13;;;;;;;5.60;5.17;;;11.70;99.90;;;;;;5091213;28;21279;-67
2021/01/29 04:53:07;;;;;;;6.60;6.00;;;11.70;99.90;;;;;;5114943;28;20647;-67
2021/01/29 04:55:43;;;;;;;5.30;4.40;;;11.70;99.90;;;;;;5114832;28;21177;-67
2021/01/29 04:58:12;;;;;;;5.13;4.77;;;11.80;99.90;;;;;;5114824;28;20627;-67
2021/01/29 05:01:07;;;;;;;5.50;5.00;;;11.80;99.90;;;;;;5110997;28;20640;-67
2021/01/29 05:03:54;;;;;;;4.43;4.10;;;11.80;99.90;;;;;;5094252;28;20693;-67
2021/01/29 05:06:31;;;;;;;4.07;3.77;;;11.80;99.90;;;;;;5093855;28;20674;-66
2021/01/29 05:09:20;;;;;;;3.90;3.60;;;11.80;99.90;;;;;;5094165;28;20628;-68
2021/01/29 05:12:09;;;;;;;4.00;2.90;;;11.80;99.90;;;;;;5094262;28;20669;-67
2021/01/29 05:14:51;;;;;;;2.50;2.30;;;11.80;99.90;;;;;;5060259;28;20628;-67
2021/01/29 05:17:46;;;;;;;2.60;2.43;;;11.80;99.90;;;;;;5093673;28;20624;-66
2021/01/29 05:20:40;;;;;;;6.33;2.43;;;11.80;99.90;;;;;;5094106;28;20699;-67
2021/01/29 05:23:08;;;;;;;2.47;2.30;;;11.70;99.90;;;;;;5093510;28;20652;-67
2021/01/29 05:26:07;;;;;;;2.40;2.20;;;11.70;99.90;;;;;;5093605;28;20624;-67
2021/01/29 05:29:04;;;;;;;2.80;2.50;;;11.70;99.90;;;;;;5091070;28;20689;-67
2021/01/29 05:31:57;;;;;;;2.60;1.97;;;11.70;99.90;;;;;;5072053;28;20698;-67
2021/01/29 05:34:48;;;;;;;2.97;2.77;;;11.70;99.90;;;;;;5073164;28;20674;-68
2021/01/29 05:37:44;;;;;;;3.60;2.37;;;11.70;99.90;;;;;;5073253;28;20669;-68
2021/01/29 05:40:20;;;;;;;3.20;2.90;;;11.70;99.90;;;;;;5055982;28;20665;-68
2021/01/29 05:42:54;;;;;;;3.20;2.90;;;11.60;99.90;;;;;;5073619;28;20664;-68
2021/01/29 05:45:42;;;;;;;3.30;3.00;;;11.60;99.90;;;;;;5073744;28;20694;-68
2021/01/29 05:49:00;;;;;;;2.23;2.13;;;11.60;99.90;;;;;;5086955;28;21249;-67
2021/01/29 05:51:39;;;;;;;4.83;2.70;;;11.60;99.90;;;;;;5080805;28;20628;-68
2021/01/29 05:54:20;;;;;;;2.50;2.13;;;11.60;99.90;;;;;;5095710;28;20662;-67
2021/01/29 05:56:55;;;;;;;2.33;1.97;;;11.60;99.90;;;;;;5089887;28;20992;-67
2021/01/29 05:59:38;;;;;;;2.37;2.17;;;11.60;99.90;;;;;;5092885;28;20624;-67
2021/01/29 06:02:28;;;;;;;2.10;1.97;;;11.50;99.90;;;;;;5093779;28;20628;-67
2021/01/29 06:05:13;;;;;;;2.63;1.77;;;11.50;99.90;;;;;;5093392;28;20625;-68
2021/01/29 06:08:07;;;;;;;1.97;1.77;;;11.50;99.90;;;;;;5093132;28;20628;-67
2021/01/29 06:11:01;;;;;;;6.27;1.73;;;11.50;99.90;;;;;;5092753;28;21216;-67
2021/01/29 06:13:55;;;;;;;2.30;1.73;;;11.50;99.90;;;;;;5092536;28;20643;-67
2021/01/29 06:16:55;;;;;;;2.10;1.87;;;11.50;99.90;;;;;;5092619;28;20616;-67
2021/01/29 06:19:54;;;;;;;1.57;1.47;;;11.40;99.90;;;;;;5072507;28;20594;-67
2021/01/29 06:22:57;;;;;;;1.30;1.20;;;11.40;99.90;;;;;;5072318;28;21228;-67
2021/01/29 06:25:45;;;;;;;2.30;1.70;;;11.40;99.90;;;;;;5072910;28;20624;-67
2021/01/29 06:28:34;;;;;;;1.80;1.30;;;11.40;99.90;;;;;;5072039;28;20633;-67
2021/01/29 06:31:20;;;;;;;1.40;1.30;;;11.40;99.90;;;;;;5072402;28;20639;-67
2021/01/29 06:34:02;;;;;;;1.63;1.53;;;11.40;99.90;;;;;;5061696;28;20661;-67
2021/01/29 06:36:42;;;;;;;2.23;2.13;;;11.40;99.90;;;;;;5071573;28;20633;-67
2021/01/29 06:39:24;;;;;;;1.40;1.30;;;11.40;99.90;;;;;;5071665;28;20620;-67
2021/01/29 06:42:25;;;;;;;1.70;1.60;;;11.40;99.90;;;;;;5072069;28;20667;-67
2021/01/29 06:45:21;;;;;;;1.40;1.30;;;11.30;99.90;;;;;;5071995;28;20708;-67
2021/01/29 06:47:58;;;;;;;1.23;1.13;;;11.30;99.90;;;;;;5063607;28;20657;-67
2021/01/29 06:50:31;;;;;;;0.77;0.77;;;11.30;99.90;;;;;;5092260;28;20616;-68
2021/01/29 06:53:05;;;;;;;1.63;0.80;;;11.30;99.90;;;;;;5092111;28;20705;-68
2021/01/29 06:55:58;;;;;;;0.63;0.63;;;11.30;99.90;;;;;;5091837;28;20620;-68
2021/01/29 06:58:56;;;;;;;7.30;1.17;;;11.30;99.90;;;;;;5091546;28;20621;-68
2021/01/29 07:01:51;;;;;;;1.63;0.80;;;11.20;99.90;;;;;;5091551;28;20655;-69
2021/01/29 07:04:47;;;;;;;2.00;0.40;;;11.20;99.90;;;;;;5057671;28;20709;-67
2021/01/29 07:07:19;;;;;;;0.40;0.30;;;11.20;99.90;;;;;;5091883;28;20612;-67
2021/01/29 07:09:58;;;;;;;0.50;0.30;;;11.20;99.90;;;;;;5090565;28;20618;-66
2021/01/29 07:12:30;;;;;;;0.73;0.40;;;11.10;99.90;;;;;;5091755;28;20644;-66
2021/01/29 07:15:14;;;;;;;0.50;0.40;;;11.10;99.90;;;;;;5073151;28;20913;-67
2021/01/29 07:17:48;;;;;;;0.70;0.40;;;11.10;99.90;;;;;;5091581;28;21159;-68
2021/01/29 07:20:25;;;;;;;0.53;0.33;;;11.10;99.80;;;;;;5091170;28;20656;-67
2021/01/29 07:23:35;;;;;;;0.60;0.40;;;11.10;99.70;;;;;;5091491;28;21276;-67
2021/01/29 07:26:13;;;;;;;0.60;0.40;;;11.10;99.40;;;;;;5075684;28;20628;-68
2021/01/29 07:28:48;;;;;;;1.63;0.50;;;11.10;99.40;;;;;;5073626;28;20690;-68
2021/01/29 07:31:37;;;;;;;0.40;0.30;;;11.10;99.20;;;;;;5091448;28;20615;-67
2021/01/29 07:34:09;;;;;;;0.80;0.60;;;11.10;99.20;;;;;;5063746;28;20678;-68
2021/01/29 07:37:00;;;;;;;0.40;0.30;;;11.10;99.00;;;;;;5073523;28;20635;-67
2021/01/29 07:40:01;;;;;;;0.80;0.47;;;11.00;99.20;;;;;;5072900;28;21284;-67
2021/01/29 07:42:39;;;;;;;1.03;0.67;;;11.00;99.20;;;;;;5086173;28;20724;-66
2021/01/29 07:45:16;;;;;;;0.80;0.30;;;10.90;99.30;;;;;;5072761;28;20677;-67
2021/01/29 07:47:55;;;;;;;0.40;0.23;;;10.90;99.30;;;;;;5091424;28;20754;-68
2021/01/29 07:50:28;;;;;;;0.80;0.40;;;10.90;99.20;;;;;;5091480;28;20677;-67
2021/01/29 07:52:59;;;;;;;0.80;0.47;;;10.90;99.30;;;;;;5090999;28;20678;-67
2021/01/29 07:55:26;;;;;;;2.60;0.50;;;10.80;99.30;;;;;;5091072;28;20627;-67
2021/01/29 07:58:16;;;;;;;0.70;0.47;;;10.80;99.50;;;;;;5067217;28;21002;-66
2021/01/29 08:01:09;;;;;;;0.60;0.50;;;10.70;99.90;;;;;;5091438;28;20649;-67
2021/01/29 08:03:57;;;;;;;0.80;0.70;;;10.60;99.90;;;;;;5091124;28;20680;-67
2021/01/29 08:06:26;;;;;;;0.50;0.30;;;10.50;99.90;;;;;;5091183;28;20995;-67
2021/01/29 08:08:55;;;;;;;0.50;0.30;;;10.50;99.90;;;;;;5091237;28;20956;-68
2021/01/29 08:11:22;;;;;;;2.00;0.50;;;10.50;99.90;;;;;;5091027;28;20624;-68
2021/01/29 08:14:05;;;;;;;0.60;0.43;;;10.50;99.90;;;;;;5090480;28;20706;-68
2021/01/29 08:16:48;;;;;;;0.50;0.40;;;10.60;99.90;;;;;;5091008;28;20612;-68
2021/01/29 08:19:18;;;;;;;0.40;0.30;;;10.70;99.90;;;;;;5070681;28;20625;-68
2021/01/29 08:22:18;;;;;;;0.50;0.40;;;10.70;99.90;;;;;;5072231;28;20661;-68
2021/01/29 08:24:54;;;;;;;0.60;0.60;;;10.70;99.90;;;;;;5074077;28;20625;-67
2021/01/29 08:27:55;;;;;;;0.60;0.60;;;10.70;99.90;;;;;;5074734;28;21027;-67
2021/01/29 08:30:37;;;;;;;0.90;0.50;;;10.70;99.90;;;;;;5074169;28;20632;-62
2021/01/29 08:33:20;;;;;;;0.80;0.60;;;11.10;99.90;;;;;;5074610;28;20653;-69
2021/01/29 08:36:02;;;;;;;1.50;0.50;;;11.60;99.10;;;;;;5074383;28;20703;-68
2021/01/29 08:38:34;;;;;;;0.70;0.60;;;11.60;97.90;;;;;;5074538;28;20723;-64
2021/01/29 08:41:05;;;;;;;0.60;0.50;;;11.90;98.60;;;;;;5074161;28;20668;-69
2021/01/29 08:43:41;;;;;;;0.77;0.43;;;12.10;96.80;;;;;;5073860;28;20660;-69
2021/01/29 08:46:16;;;;;;;0.67;0.50;;;11.80;96.50;;;;;;5074258;28;20616;-70
2021/01/29 08:48:58;;;;;;;1.10;0.80;;;11.60;97.00;;;;;;5091213;28;20661;-70
2021/01/29 08:51:26;;;;;;;0.87;0.43;;;11.50;97.20;;;;;;5094600;28;20685;-69
2021/01/29 08:54:17;;;;;;;0.60;0.50;;;11.40;97.30;;;;;;5092073;28;21133;-61
2021/01/29 08:56:50;;;;;;;1.07;0.50;;;11.40;97.50;;;;;;5090991;28;21030;-60
2021/01/29 08:59:18;;;;;;;0.50;0.40;;;11.40;97.40;;;;;;5086949;28;20624;-60
2021/01/29 09:01:47;;;;;;;0.60;0.60;;;11.40;97.20;;;;;;5093145;28;20647;-61
2021/01/29 09:04:18;;;;;;;0.70;0.40;;;11.40;97.20;;;;;;5093305;28;20648;-61
2021/01/29 09:06:45;;;;;;;0.63;0.50;;;11.40;97.00;;;;;;5093462;28;20607;-63
2021/01/29 09:09:17;;;;;;;0.60;0.40;;;11.40;97.20;;;;;;5093649;28;21236;-61
2021/01/29 09:11:47;;;;;;;3.50;0.77;;;11.40;96.90;;;;;;5093248;28;20613;-60
2021/01/29 09:14:19;;;;;;;2.77;0.87;;;11.50;96.80;;;;;;5072954;28;20652;-59
2021/01/29 09:16:46;;;;;;;0.70;0.40;;;11.50;96.70;;;;;;5073655;28;21001;-61
2021/01/29 09:19:14;;;;;;;0.40;0.33;;;11.60;96.90;;;;;;5093473;28;20676;-61
2021/01/29 09:21:48;;;;;;;1.27;0.60;;;11.60;96.80;;;;;;5092851;28;20664;-61
2021/01/29 09:24:20;;;;;;;1.00;0.47;;;11.50;96.90;;;;;;5092943;28;20655;-61
2021/01/29 09:27:08;;;;;;;1.27;0.63;;;11.60;97.30;;;;;;5093520;28;21035;-60
2021/01/29 09:29:37;;;;;;;0.90;0.57;;;11.70;96.80;;;;;;5092298;28;20678;-61
2021/01/29 09:32:06;;;;;;;1.73;0.70;;;11.70;96.70;;;;;;5093121;28;20672;-63
2021/01/29 09:34:35;;;;;;;2.60;1.10;;;11.80;96.60;;;;;;5092002;28;20628;-64
2021/01/29 09:37:05;;;;;;;1.07;0.63;;;11.80;96.10;;;;;;5093261;28;20665;-60
2021/01/29 09:39:36;;;;;;;3.03;1.20;;;11.80;95.70;;;;;;5092748;28;21184;-60
2021/01/29 09:42:05;;;;;;;2.20;0.70;;;11.80;95.60;;;;;;5092819;28;21061;-62
2021/01/29 09:44:34;;;;;;;1.40;1.03;;;11.90;95.30;;;;;;5092623;28;20620;-61
2021/01/29 09:47:03;;;;;;;3.30;1.97;;;11.90;94.30;;;;;;5092409;28;20631;-61
2021/01/29 09:49:31;;;;;;;3.07;1.53;;;11.90;94.70;;;;;;5093090;28;20620;-63
2021/01/29 09:52:03;;;;;;;3.93;1.60;;;12.00;94.00;;;;;;5092618;28;20677;-62
2021/01/29 09:54:36;;;;;;;3.70;1.50;;;12.00;93.10;;;;;;5092915;28;20701;-61
2021/01/29 09:57:06;;;;;;;1.17;0.97;;;12.00;92.80;;;;;;5089707;28;20650;-62
2021/01/29 09:59:45;;;;;;;4.93;1.90;;;12.10;92.70;;;;;;5072715;28;20644;-62
2021/01/29 10:02:18;;;;;;;5.00;1.40;;;12.10;92.00;;;;;;5076649;28;21300;-61
2021/01/29 10:05:05;;;;;;;4.97;2.30;;;12.10;91.80;;;;;;5092611;28;20631;-61
2021/01/29 10:07:33;;;;;;;3.40;1.47;;;12.10;91.20;;;;;;5092635;28;20658;-60
2021/01/29 10:10:05;;;;;;;5.30;1.97;;;12.10;90.80;;;;;;5092833;28;21029;-62
2021/01/29 10:12:33;;;;;;;3.87;1.60;;;12.10;89.80;;;;;;5091664;28;20648;-61
2021/01/29 10:15:02;;;;;;;2.97;1.30;;;12.10;89.70;;;;;;5092493;28;20639;-61
2021/01/29 10:17:31;;;;;;;4.70;2.00;;;12.10;89.70;;;;;;5092077;28;20686;-60
2021/01/29 10:19:58;;;;;;;7.20;1.23;;;12.10;89.10;;;;;;5092358;28;20685;-59
2021/01/29 10:22:54;;;;;;;5.60;1.93;;;12.20;89.10;;;;;;5092342;28;20668;-60
2021/01/29 10:25:44;;;;;;;7.30;3.07;;;12.20;89.70;;;;;;5091723;28;20788;-59
2021/01/29 10:28:15;;;;;;;4.73;1.53;;;12.30;90.40;;;;;;5092208;28;21062;-61
2021/01/29 10:30:47;;;;;;;6.17;2.53;;;12.30;90.30;;;;;;5091719;28;20678;-60
2021/01/29 10:33:22;;;;;;;7.93;1.97;;;12.30;90.90;;;;;;5091593;28;20972;-60
2021/01/29 10:35:55;;;;;;;8.97;2.43;;;12.30;91.20;;;;;;5092010;28;20685;-60
2021/01/29 10:38:25;;;;;;;6.10;1.50;;;12.30;91.20;;;;;;5091127;28;20638;-62
2021/01/29 10:40:57;;;;;;;8.57;2.60;;;12.30;91.50;;;;;;5091501;28;21010;-60
2021/01/29 10:43:40;;;;;;;5.50;2.07;;;12.30;91.80;;;;;;5097790;22;21057;-55
2021/01/29 10:46:38;;;;;;;3.90;1.67;;;12.30;91.90;;;;;;5074178;28;20677;-54
2021/01/29 10:49:10;;;;;;;3.60;1.93;;;12.30;91.50;;;;;;5051557;28;20617;-53
2021/01/29 10:51:43;;;;;;;6.93;2.73;;;12.30;91.40;;;;;;5050578;28;21207;-55
2021/01/29 10:54:10;;;;;;;7.10;2.40;;;12.40;91.50;;;;;;5065742;28;20652;-51
2021/01/29 10:56:46;;;;;;;7.90;2.20;;;12.40;91.30;;;;;;5070814;28;20665;-54
2021/01/29 10:59:15;;;;;;;7.40;2.27;;;12.40;90.50;;;;;;5071374;28;20674;-53
2021/01/29 11:01:43;;;;;;;11.03;2.80;;;12.50;91.10;;;;;;5070807;28;20692;-53
2021/01/29 11:04:15;;;;;;;9.37;2.43;;;12.50;91.80;;;;;;5091013;28;20721;-52
2021/01/29 11:06:45;;;;;;;4.17;1.87;;;12.70;90.20;;;;;;5091366;28;20628;-57
2021/01/29 11:09:21;;;;;;;7.40;2.30;;;12.70;90.40;;;;;;5090515;28;20666;-55
2021/01/29 11:11:54;;;;;;;11.70;2.60;;;12.60;90.10;;;;;;5095534;28;21150;-54
2021/01/29 11:14:25;;;;;;;7.17;2.73;;;12.60;89.90;;;;;;5111133;28;20697;-54
2021/01/29 11:16:55;;;;;;;7.90;2.40;;;12.60;90.60;;;;;;5109288;28;20654;-54
2021/01/29 11:19:24;;;;;;;7.00;2.23;;;12.60;90.20;;;;;;5090213;28;20628;-52
2021/01/29 11:22:10;;;;;;;4.03;1.67;;;12.60;90.50;;;;;;5090506;28;20652;-54
2021/01/29 11:24:41;;;;;;;7.33;2.43;;;12.60;90.00;;;;;;5090281;28;21014;-54
2021/01/29 11:27:14;;;;;;;3.90;2.00;;;12.50;90.00;;;;;;5091019;28;20612;-55
2021/01/29 11:29:42;;;;;;;5.10;1.80;;;12.50;90.30;;;;;;5090370;28;20611;-54
2021/01/29 11:32:22;;;;;;;2.93;1.90;;;12.50;90.30;;;;;;5090232;28;21167;-55
2021/01/29 11:34:54;;;;;;;6.03;2.40;;;12.50;90.10;;;;;;5090226;28;20623;-54
2021/01/29 11:37:23;;;;;;;2.90;1.47;;;12.60;90.60;;;;;;5090529;28;20628;-54
2021/01/29 11:39:52;;;;;;;6.03;2.10;;;12.60;90.00;;;;;;5090298;28;20674;-55
2021/01/29 11:42:23;;;;;;;10.20;2.80;;;12.50;90.30;;;;;;5090199;28;20725;-55
2021/01/29 11:44:54;;;;;;;2.93;0.97;;;12.50;91.10;;;;;;5090453;28;20667;-55
2021/01/29 11:47:27;;;;;;;6.97;2.00;;;12.60;90.70;;;;;;5100137;28;20624;-53
2021/01/29 11:50:00;;;;;;;2.80;1.77;;;12.70;90.70;;;;;;5089977;28;20628;-54
2021/01/29 11:52:36;;;;;;;3.27;1.30;;;12.70;90.60;;;;;;5089553;28;20674;-53
2021/01/29 11:55:08;;;;;;;4.50;1.37;;;12.70;90.80;;;;;;5090018;28;21233;-54
2021/01/29 11:57:41;;;;;;;2.40;1.20;;;12.80;90.60;;;;;;5092802;28;20621;-53
2021/01/29 12:00:09;;;;;;;6.40;1.10;;;12.80;90.50;;;;;;5076124;28;20762;-52
2021/01/29 12:02:38;;;;;;;4.20;1.27;;;12.70;90.70;;;;;;5083859;28;20731;-54
2021/01/29 12:05:18;;;;;;;3.00;0.90;;;12.60;90.60;;;;;;5096391;28;20624;-54
2021/01/29 12:07:47;;;;;;;2.53;0.93;;;12.60;91.10;;;;;;5096767;28;20628;-53
2021/01/29 12:10:19;;;;;;;1.43;1.00;;;12.70;91.30;;;;;;5096613;28;20628;-54
2021/01/29 12:12:51;;;;;;;3.70;1.93;;;12.60;91.00;;;;;;5096978;28;20648;-54
2021/01/29 12:15:20;;;;;;;3.93;1.23;;;12.60;91.10;;;;;;5096121;28;20631;-53
2021/01/29 12:17:49;;;;;;;6.60;1.57;;;12.60;91.60;;;;;;5096858;28;20631;-53
2021/01/29 12:20:18;;;;;;;2.60;1.47;;;12.70;91.40;;;;;;5077923;28;20632;-56
2021/01/29 12:22:46;;;;;;;3.10;1.27;;;12.80;91.50;;;;;;5096838;28;20732;-54
2021/01/29 12:25:32;;;;;;;3.40;0.80;;;12.90;91.80;;;;;;5096093;28;21054;-56
2021/01/29 12:28:04;;;;;;;4.30;1.10;;;13.20;90.60;;;;;;5096749;28;20622;-55
2021/01/29 12:30:32;;;;;;;3.10;1.30;;;13.20;90.20;;;;;;5096433;28;21472;-54
2021/01/29 12:33:05;;;;;;;2.60;1.57;;;13.20;90.30;;;;;;5096377;28;21179;-54
2021/01/29 12:35:34;;;;;;;6.83;1.07;;;13.30;90.40;;;;;;5096669;28;20619;-52
2021/01/29 12:38:12;;;;;;;3.60;1.23;;;13.50;88.60;;;;;;5096366;28;20643;-53
2021/01/29 12:40:40;;;;;;;1.83;1.43;;;13.60;88.70;;;;;;5096631;28;20624;-56
2021/01/29 12:43:14;;;;;;;4.00;1.37;;;13.60;87.40;;;;;;5095913;28;20667;-54
2021/01/29 12:45:42;;;;;;;2.17;1.13;;;13.70;86.20;;;;;;5098474;28;20717;-54
2021/01/29 12:48:15;;;;;;;1.23;0.60;;;13.70;85.20;;;;;;5103585;28;20804;-53
2021/01/29 12:50:54;;;;;;;5.10;1.17;;;13.70;86.10;;;;;;5096564;28;20673;-55
2021/01/29 12:53:24;;;;;;;2.40;1.30;;;13.60;84.70;;;;;;5078174;28;20655;-55
2021/01/29 12:55:53;;;;;;;5.30;2.90;;;13.80;84.90;;;;;;5078687;28;20739;-54
2021/01/29 12:58:21;;;;;;;6.20;1.30;;;13.90;83.50;;;;;;5096621;28;20624;-53
2021/01/29 13:00:48;;;;;;;4.93;1.63;;;13.90;83.70;;;;;;5096543;28;20620;-54
2021/01/29 13:03:28;;;;;;;4.20;2.73;;;13.80;84.80;;;;;;5095838;28;20783;-52
2021/01/29 13:06:08;;;;;;;11.83;2.13;;;13.70;84.60;;;;;;5096594;28;20676;-54
2021/01/29 13:09:10;;;;;;;4.10;1.20;;;13.60;84.60;;;;;;5093167;28;20628;-53
2021/01/29 13:11:44;;;;;;;5.60;1.90;;;13.50;84.80;;;;;;5093130;28;20627;-54
2021/01/29 13:14:17;;;;;;;6.03;2.00;;;13.50;84.70;;;;;;5093533;28;20697;-53
2021/01/29 13:17:01;;;;;;;2.87;1.50;;;13.60;84.80;;;;;;5087212;28;20632;-54
2021/01/29 13:19:30;;;;;;;6.53;1.77;;;13.90;83.90;;;;;;5073102;28;20957;-54
2021/01/29 13:21:58;;;;;;;4.30;1.17;;;14.00;84.30;;;;;;5079320;28;20648;-52
2021/01/29 13:24:27;;;;;;;8.40;2.43;;;13.90;84.00;;;;;;5092799;28;21344;-54
2021/01/29 13:26:54;;;;;;;7.03;1.80;;;13.70;83.30;;;;;;5092353;28;20619;-54